Time;durP1;ratioP1;P1;durP2;ratioP2;P2;SDS_P1;SDS_P2;PMS_P1;PMS_P2;Temp;Humidity;BMP_temperature;BMP_pressure;BME280_temperature;BME280_humidity;BME280_pressure;Samples;Min_cycle;Max_cycle;Signal;HPM_P1;HPM_P2
2021/01/12 13:28:21;;;;;;;;;;;;;;;;;;3725784;37;19957;-62
2021/01/12 13:30:47;;;;;;;;;;;;;;;;;;4338940;32;19970;-64
2021/01/12 13:33:13;;;;;;;;;;;;;;;;;;4312234;32;20010;-61
2021/01/12 13:35:39;;;;;;;;;;;;;;;;;;4332222;32;19997;-61
2021/01/12 13:38:05;;;;;;;;;;;;;;;;;;4317724;32;19982;-60
2021/01/12 13:40:30;;;;;;;;;;;;;;;;;;4332707;32;19997;-63
2021/01/12 13:42:59;;;;;;;;;;;;;;;;;;4334638;32;20069;-61
2021/01/12 13:45:25;;;;;;;;;;;;;;;;;;4335836;32;20364;-62
2021/01/12 13:47:51;;;;;;;;;;;;;;;;;;4306961;32;20444;-61
2021/01/12 13:52:29;;;;;;;27.90;14.93;;;;;;;;;;3805426;37;20448;-61
2021/01/12 13:54:55;;;;;;;28.20;15.85;;;;;;;;;;4352734;32;20161;-60
2021/01/12 13:57:31;;;;;;;31.20;18.17;;;;;;;;;;4355028;32;20461;-60
2021/01/12 13:59:58;;;;;;;34.38;19.40;;;;;;;;;;4334343;32;20121;-60
2021/01/12 14:02:25;;;;;;;29.02;16.35;;;;;;;;;;4352369;32;20102;-59
2021/01/12 14:04:51;;;;;;;34.85;20.25;;;;;;;;;;4363839;32;20063;-60
2021/01/12 14:07:17;;;;;;;;;;;;;;;;;;4354642;32;20130;-59
2021/01/12 14:09:43;;;;;;;33.33;19.73;;;;;;;;;;4366253;32;20114;-61
2021/01/12 14:12:12;;;;;;;;;;;;;;;;;;4351895;32;20122;-67
2021/01/12 14:14:39;;;;;;;33.05;18.90;;;;;;;;;;4260013;32;19993;-59
2021/01/12 14:17:05;;;;;;;37.40;19.98;;;;;;;;;;4296966;33;20652;-59
2021/01/12 14:19:31;;;;;;;30.85;18.67;;;;;;;;;;4306774;33;20095;-61
2021/01/12 14:22:00;;;;;;;32.22;18.60;;;;;;;;;;4307685;33;20070;-60
2021/01/12 14:24:25;;;;;;;31.50;19.27;;;;;;;;;;4292570;33;21191;-61
2021/01/12 14:26:52;;;;;;;32.50;19.15;;;;;;;;;;4311307;33;20170;-59
2021/01/12 14:29:18;;;;;;;35.78;20.80;;;;;;;;;;4299610;33;20108;-60
2021/01/12 14:31:43;;;;;;;;;;;;;;;;;;4312746;33;20490;-60
2021/01/12 14:34:10;;;;;;;39.20;23.77;;;;;;;;;;4312418;33;19994;-63
2021/01/12 14:36:37;;;;;;;36.58;21.87;;;;;;;;;;4303301;33;20060;-59
2021/01/12 14:39:06;;;;;;;38.65;22.30;;;;;;;;;;4307776;33;20098;-60
2021/01/12 14:41:32;;;;;;;43.58;22.55;;;;;;;;;;4292850;33;20083;-60
2021/01/12 14:43:58;;;;;;;36.33;23.00;;;;;;;;;;4305341;33;20089;-62
2021/01/12 14:46:28;;;;;;;35.13;23.70;;;;;;;;;;4314130;33;20088;-60
2021/01/12 14:48:55;;;;;;;37.85;23.27;;;;;;;;;;4287695;33;20132;-59
2021/01/12 14:51:21;;;;;;;37.70;23.90;;;;;;;;;;4315006;33;20090;-59
2021/01/12 14:53:47;;;;;;;35.42;22.27;;;;;;;;;;4312377;33;20501;-64
2021/01/12 14:56:13;;;;;;;36.42;21.52;;;;;;;;;;4320458;33;20124;-59
2021/01/12 14:58:39;;;;;;;;;;;;;;;;;;4318155;33;20111;-59
2021/01/12 15:01:05;;;;;;;34.08;21.92;;;;;;;;;;4329723;33;19967;-59
2021/01/12 15:03:30;;;;;;;;;;;;;;;;;;4318232;33;20090;-59
2021/01/12 15:05:56;;;;;;;31.73;18.05;;;;;;;;;;4319420;33;20009;-60
2021/01/12 15:08:22;;;;;;;34.97;20.12;;;;;;;;;;4316362;33;20083;-60
2021/01/12 15:10:47;;;;;;;32.67;18.80;;;;;;;;;;4317387;33;20120;-59
2021/01/12 15:13:13;;;;;;;33.47;20.05;;;;;;;;;;4327769;33;20096;-63
2021/01/12 15:15:40;;;;;;;34.33;20.37;;;;;;;;;;4311740;33;20585;-60
2021/01/12 15:18:05;;;;;;;34.90;17.45;;;;;;;;;;4307735;33;20503;-61
2021/01/12 15:20:31;;;;;;;;;;;;;;;;;;4304738;33;20067;-60
2021/01/12 15:22:57;;;;;;;31.90;19.65;;;;;;;;;;4322299;33;20100;-61
2021/01/12 15:25:22;;;;;;;26.42;16.37;;;;;;;;;;4319497;33;20087;-61
2021/01/12 15:27:48;;;;;;;28.58;15.70;;;;;;;;;;4318852;33;20506;-62
2021/01/12 15:30:14;;;;;;;;;;;;;;;;;;4315161;33;21134;-63
2021/01/12 15:32:40;;;;;;;27.45;16.33;;;;;;;;;;4314972;33;19978;-66
2021/01/12 15:35:07;;;;;;;27.20;16.77;;;;;;;;;;4310099;33;20140;-62
2021/01/12 15:37:34;;;;;;;28.33;15.10;;;;;;;;;;4290627;33;20148;-62
2021/01/12 15:40:00;;;;;;;26.33;16.02;;;;;;;;;;4317898;33;20145;-63
2021/01/12 15:42:25;;;;;;;;;;;;;;;;;;4316971;33;20150;-66
2021/01/12 15:44:51;;;;;;;29.40;18.35;;;;;;;;;;4292409;33;19991;-64
2021/01/12 15:47:17;;;;;;;31.60;17.58;;;;;;;;;;4315407;33;20095;-63
2021/01/12 15:49:43;;;;;;;31.60;18.48;;;;;;;;;;4316526;33;20525;-63
2021/01/12 15:52:08;;;;;;;;;;;;;;;;;;4305010;33;20079;-63
2021/01/12 15:54:34;;;;;;;30.17;18.52;;;;;;;;;;4317102;33;19978;-63
2021/01/12 15:57:00;;;;;;;;;;;;;;;;;;4304704;33;20098;-63
2021/01/12 15:59:26;;;;;;;30.42;18.40;;;;;;;;;;4318393;33;20354;-63
2021/01/12 16:01:53;;;;;;;28.02;17.83;;;;;;;;;;4305326;33;20107;-63
2021/01/12 16:04:18;;;;;;;27.15;17.20;;;;;;;;;;4304876;33;20059;-65
2021/01/12 16:06:48;;;;;;;;;;;;;;;;;;4302981;33;20098;-64
2021/01/12 16:09:14;;;;;;;25.65;16.27;;;;;;;;;;4313450;33;19983;-63
2021/01/12 16:11:40;;;;;;;;;;;;;;;;;;4290793;33;20426;-62
2021/01/12 16:14:06;;;;;;;20.23;13.55;;;;;;;;;;4314360;33;20349;-63
2021/01/12 16:16:32;;;;;;;30.33;17.17;;;;;;;;;;4290606;33;20096;-63
2021/01/12 16:18:57;;;;;;;;;;;;;;;;;;4291205;33;20582;-63
2021/01/12 16:21:24;;;;;;;24.20;15.02;;;;;;;;;;4314603;33;20400;-63
2021/01/12 16:23:49;;;;;;;20.25;13.18;;;;;;;;;;4290046;33;20084;-63
2021/01/12 16:26:15;;;;;;;;;;;;;;;;;;4302814;33;20568;-65
2021/01/12 16:28:41;;;;;;;21.50;13.15;;;;;;;;;;4315061;33;19975;-63
2021/01/12 16:31:08;;;;;;;23.90;14.75;;;;;;;;;;4290416;33;20525;-64
2021/01/12 16:33:34;;;;;;;20.85;14.48;;;;;;;;;;4304394;33;20085;-63
2021/01/12 16:36:00;;;;;;;;;;;;;;;;;;4304611;33;20157;-63
2021/01/12 16:38:27;;;;;;;25.60;17.08;;;;;;;;;;4304553;33;19985;-64
2021/01/12 16:40:53;;;;;;;24.55;16.37;;;;;;;;;;4292329;33;20546;-64
2021/01/12 16:43:18;;;;;;;;;;;;;;;;;;4304799;33;20083;-64
2021/01/12 16:46:05;;;;;;;22.58;15.00;;;;;;;;;;4317013;33;19978;-62
2021/01/12 16:48:31;;;;;;;22.03;15.27;;;;;;;;;;4316644;33;20087;-62
2021/01/12 16:50:56;;;;;;;;;;;;;;;;;;4305284;33;20266;-63
2021/01/12 16:53:24;;;;;;;26.35;16.48;;;;;;;;;;4318591;33;20416;-63
2021/01/12 16:55:53;;;;;;;25.70;16.12;;;;;;;;;;4305401;33;20071;-63
2021/01/12 16:58:25;;;;;;;26.62;16.25;;;;;;;;;;4305267;33;20131;-62
2021/01/12 17:00:57;;;;;;;23.12;14.87;;;;;;;;;;4304991;33;20078;-63
2021/01/12 17:03:23;;;;;;;25.42;14.23;;;;;;;;;;4304995;33;20072;-63
2021/01/12 17:05:49;;;;;;;21.87;14.35;;;;;;;;;;4316860;33;20072;-63
2021/01/12 17:08:15;;;;;;;;;;;;;;;;;;4304867;33;20075;-62
2021/01/12 17:10:45;;;;;;;24.10;15.53;;;;;;;;;;4318621;33;19970;-64
2021/01/12 17:13:11;;;;;;;25.98;17.12;;;;;;;;;;4316092;33;20610;-64
2021/01/12 17:15:37;;;;;;;23.45;15.93;;;;;;;;;;4316754;33;20064;-64
2021/01/12 17:18:04;;;;;;;29.00;16.17;;;;;;;;;;4306414;33;20071;-64
2021/01/12 17:20:30;;;;;;;25.77;15.15;;;;;;;;;;4342783;33;20078;-64
2021/01/12 17:23:01;;;;;;;26.77;17.33;;;;;;;;;;4319668;33;20083;-63
2021/01/12 17:25:26;;;;;;;27.85;17.48;;;;;;;;;;4321323;33;20067;-64
2021/01/12 17:27:53;;;;;;;;;;;;;;;;;;4321470;33;20071;-63
2021/01/12 17:30:26;;;;;;;29.30;17.92;;;;;;;;;;4331488;33;19983;-64
2021/01/12 17:32:56;;;;;;;31.85;18.65;;;;;;;;;;4331960;33;20137;-67
2021/01/12 17:35:32;;;;;;;26.98;15.73;;;;;;;;;;4330634;33;20099;-63
2021/01/12 17:37:59;;;;;;;23.98;14.38;;;;;;;;;;4307192;33;20102;-63
2021/01/12 17:40:25;;;;;;;21.98;14.02;;;;;;;;;;4304746;33;20055;-65
2021/01/12 17:42:51;;;;;;;;;;;;;;;;;;4316724;33;20073;-63
2021/01/12 17:45:18;;;;;;;22.67;14.13;;;;;;;;;;4316592;33;20472;-62
2021/01/12 17:47:49;;;;;;;25.83;16.70;;;;;;;;;;4305038;33;20176;-62
2021/01/12 17:50:16;;;;;;;25.95;17.70;;;;;;;;;;4307846;33;20097;-63
2021/01/12 17:52:44;;;;;;;26.25;17.27;;;;;;;;;;4318527;33;20083;-63
2021/01/12 17:55:21;;;;;;;21.37;14.80;;;;;;;;;;4304971;33;20071;-64
2021/01/12 17:57:47;;;;;;;27.05;14.27;;;;;;;;;;4304942;33;20107;-62
2021/01/12 18:00:14;;;;;;;18.37;12.07;;;;;;;;;;4304422;33;20094;-63
2021/01/12 18:02:40;;;;;;;21.10;12.23;;;;;;;;;;4304383;33;20075;-63
2021/01/12 18:05:06;;;;;;;18.83;12.48;;;;;;;;;;4314141;33;20165;-63
2021/01/12 18:07:33;;;;;;;20.75;12.95;;;;;;;;;;4301800;33;20068;-62
2021/01/12 18:09:59;;;;;;;23.42;14.00;;;;;;;;;;4302571;33;20068;-63
2021/01/12 18:12:25;;;;;;;;;;;;;;;;;;4289316;33;20094;-63
2021/01/12 18:15:00;;;;;;;23.00;14.38;;;;;;;;;;4277966;33;19983;-63
2021/01/12 18:17:26;;;;;;;24.85;13.88;;;;;;;;;;4303156;33;20080;-62
2021/01/12 18:19:53;;;;;;;23.20;14.05;;;;;;;;;;4301167;33;20099;-63
2021/01/12 18:22:19;;;;;;;23.38;13.90;;;;;;;;;;4301666;33;20099;-62
2021/01/12 18:24:46;;;;;;;33.85;15.27;;;;;;;;;;4300769;33;20474;-62
2021/01/12 18:27:20;;;;;;;31.42;16.35;;;;;;;;;;4301539;33;20076;-64
2021/01/12 18:29:50;;;;;;;25.58;13.98;;;;;;;;;;4300930;33;20454;-63
2021/01/12 18:32:19;;;;;;;27.00;14.98;;;;;;;;;;4315709;33;20071;-63
2021/01/12 18:34:45;;;;;;;19.17;12.48;;;;;;;;;;4292550;33;20483;-63
2021/01/12 18:37:12;;;;;;;25.05;14.38;;;;;;;;;;4303818;33;20078;-63
2021/01/12 18:39:41;;;;;;;22.17;12.65;;;;;;;;;;4306938;33;20502;-62
2021/01/12 18:42:07;;;;;;;21.65;12.32;;;;;;;;;;4306750;33;20147;-63
2021/01/12 18:44:32;;;;;;;;;;;;;;;;;;4306645;33;20113;-62
2021/01/12 18:46:59;;;;;;;21.65;12.93;;;;;;;;;;4318210;33;20035;-63
2021/01/12 18:49:24;;;;;;;23.62;13.93;;;;;;;;;;4306202;33;20068;-63
2021/01/12 18:51:51;;;;;;;;;;;;;;;;;;4305985;33;20085;-63
2021/01/12 18:54:20;;;;;;;18.73;12.30;;;;;;;;;;4330790;33;19982;-63
2021/01/12 18:56:47;;;;;;;21.60;12.60;;;;;;;;;;4306529;33;20090;-63
2021/01/12 18:59:13;;;;;;;21.73;12.73;;;;;;;;;;4306087;33;20106;-63
2021/01/12 19:01:39;;;;;;;;;;;;;;;;;;4306068;33;20454;-63
2021/01/12 19:04:05;;;;;;;26.15;15.02;;;;;;;;;;4317981;33;20374;-63
2021/01/12 19:06:32;;;;;;;25.40;15.50;;;;;;;;;;4305633;33;20123;-63
2021/01/12 19:09:05;;;;;;;25.12;15.20;;;;;;;;;;4305365;33;20071;-63
2021/01/12 19:11:30;;;;;;;24.30;14.90;;;;;;;;;;4318159;33;20595;-62
2021/01/12 19:13:56;;;;;;;;;;;;;;;;;;4306309;33;20075;-65
2021/01/12 19:16:22;;;;;;;24.33;14.85;;;;;;;;;;4318119;33;19986;-63
2021/01/12 19:18:48;;;;;;;26.67;15.13;;;;;;;;;;4317653;33;20143;-64
2021/01/12 19:21:16;;;;;;;25.35;15.18;;;;;;;;;;4305735;33;20080;-63
2021/01/12 19:23:42;;;;;;;23.67;13.82;;;;;;;;;;4305894;33;20070;-63
2021/01/12 19:26:09;;;;;;;25.98;13.80;;;;;;;;;;4317499;33;20083;-63
2021/01/12 19:28:36;;;;;;;24.77;15.15;;;;;;;;;;4305155;33;20080;-62
2021/01/12 19:31:03;;;;;;;24.10;14.73;;;;;;;;;;4305339;33;20136;-63
2021/01/12 19:33:31;;;;;;;28.30;15.68;;;;;;;;;;4305494;33;20500;-62
2021/01/12 19:35:57;;;;;;;26.12;15.73;;;;;;;;;;4305356;33;20071;-63
2021/01/12 19:38:23;;;;;;;25.70;16.10;;;;;;;;;;4305727;33;20087;-63
2021/01/12 19:40:49;;;;;;;;;;;;;;;;;;4305450;33;20502;-63
2021/01/12 19:43:15;;;;;;;26.77;14.93;;;;;;;;;;4318851;33;19975;-63
2021/01/12 19:45:44;;;;;;;;;;;;;;;;;;4317756;33;20097;-63
2021/01/12 19:48:11;;;;;;;20.88;12.13;;;;;;;;;;4318689;33;19970;-63
2021/01/12 19:50:36;;;;;;;23.12;13.62;;;;;;;;;;4316899;33;20072;-63
2021/01/12 19:53:02;;;;;;;;;;;;;;;;;;4317953;33;20102;-63
2021/01/12 19:55:28;;;;;;;25.30;16.35;;;;;;;;;;4317409;33;19979;-63
2021/01/12 19:57:54;;;;;;;25.70;16.80;;;;;;;;;;4316930;33;20099;-63
2021/01/12 20:00:20;;;;;;;;;;;;;;;;;;4329545;33;20493;-63
2021/01/12 20:02:47;;;;;;;39.53;25.55;;;;;;;;;;4305185;33;20013;-63
2021/01/12 20:05:13;;;;;;;51.90;35.08;;;;;;;;;;4324028;33;20227;-63
2021/01/12 20:07:43;;;;;;;57.83;38.05;;;;;;;;;;4302998;33;20091;-63
2021/01/12 20:10:10;;;;;;;47.28;31.02;;;;;;;;;;4302479;33;20087;-64
2021/01/12 20:12:51;;;;;;;31.30;22.50;;;;;;;;;;4302322;33;20078;-63
2021/01/12 20:15:19;;;;;;;30.37;20.85;;;;;;;;;;4302102;33;20439;-63
2021/01/12 20:18:01;;;;;;;35.70;23.12;;;;;;;;;;4302268;33;20149;-63
2021/01/12 20:20:28;;;;;;;36.30;25.85;;;;;;;;;;4302834;33;20075;-63
2021/01/12 20:22:55;;;;;;;30.95;20.85;;;;;;;;;;4302311;33;20064;-62
2021/01/12 20:25:20;;;;;;;30.52;19.98;;;;;;;;;;4302090;33;20447;-63
2021/01/12 20:27:46;;;;;;;;;;;;;;;;;;4302518;33;20113;-63
2021/01/12 20:30:12;;;;;;;28.48;18.75;;;;;;;;;;4302341;33;20350;-63
2021/01/12 20:32:39;;;;;;;27.13;18.37;;;;;;;;;;4306136;33;20128;-62
2021/01/12 20:35:05;;;;;;;28.02;18.95;;;;;;;;;;4289963;33;20075;-62
2021/01/12 20:37:31;;;;;;;26.58;17.95;;;;;;;;;;4290257;33;20092;-62
2021/01/12 20:39:57;;;;;;;28.00;19.35;;;;;;;;;;4302141;33;20080;-63
2021/01/12 20:42:23;;;;;;;;;;;;;;;;;;4290477;33;20095;-63
2021/01/12 20:44:48;;;;;;;23.42;15.95;;;;;;;;;;4302171;33;19967;-63
2021/01/12 20:47:14;;;;;;;;;;;;;;;;;;4290799;33;20080;-63
2021/01/12 20:49:40;;;;;;;17.45;11.30;;;;;;;;;;4302069;33;19986;-63
2021/01/12 20:52:10;;;;;;;17.70;12.50;;;;;;;;;;4289517;33;20072;-62
2021/01/12 20:54:36;;;;;;;20.77;13.38;;;;;;;;;;4289696;33;20107;-65
2021/01/12 20:57:03;;;;;;;20.62;12.60;;;;;;;;;;4289618;33;20068;-63
2021/01/12 20:59:29;;;;;;;20.15;12.20;;;;;;;;;;4289963;33;20075;-63
2021/01/12 21:01:54;;;;;;;;;;;;;;;;;;4302044;33;20068;-62
2021/01/12 21:04:20;;;;;;;17.33;10.43;;;;;;;;;;4302099;33;19983;-62
2021/01/12 21:06:46;;;;;;;19.77;12.85;;;;;;;;;;4301750;33;20074;-63
2021/01/12 21:09:11;;;;;;;;;;;;;;;;;;4277765;33;20079;-62
2021/01/12 21:11:42;;;;;;;18.58;11.30;;;;;;;;;;4301725;33;19971;-63
2021/01/12 21:14:08;;;;;;;16.02;11.20;;;;;;;;;;4289939;33;20083;-62
2021/01/12 21:16:35;;;;;;;18.92;11.57;;;;;;;;;;4277391;33;20064;-63
2021/01/12 21:19:02;;;;;;;17.65;11.43;;;;;;;;;;4290065;33;20161;-63
2021/01/12 21:21:28;;;;;;;14.40;10.18;;;;;;;;;;4289494;33;20466;-62
2021/01/12 21:23:54;;;;;;;;;;;;;;;;;;4301690;33;20087;-63
2021/01/12 21:26:20;;;;;;;16.23;10.90;;;;;;;;;;4302014;33;19983;-63
2021/01/12 21:28:46;;;;;;;;;;;;;;;;;;4302053;33;20072;-63
2021/01/12 21:31:15;;;;;;;15.63;9.90;;;;;;;;;;4301214;33;19963;-63
2021/01/12 21:33:41;;;;;;;16.80;10.52;;;;;;;;;;4300138;33;20071;-63
2021/01/12 21:36:07;;;;;;;;;;;;;;;;;;4303958;33;20105;-63
2021/01/12 21:38:34;;;;;;;14.30;9.67;;;;;;;;;;4315729;33;19967;-63
2021/01/12 21:41:00;;;;;;;17.48;10.98;;;;;;;;;;4328013;33;20068;-63
2021/01/12 21:43:25;;;;;;;;;;;;;;;;;;4304329;33;20072;-62
2021/01/12 21:45:51;;;;;;;15.63;10.57;;;;;;;;;;4315838;33;20382;-63
2021/01/12 21:48:17;;;;;;;;;;;;;;;;;;4316458;33;20514;-63
2021/01/12 21:50:42;;;;;;;15.90;10.55;;;;;;;;;;4315542;33;20009;-63
2021/01/12 21:53:08;;;;;;;;;;;;;;;;;;4303685;33;20091;-63
2021/01/12 21:55:34;;;;;;;20.62;12.32;;;;;;;;;;4315442;33;20042;-63
2021/01/12 21:57:59;;;;;;;;;;;;;;;;;;4304444;33;20166;-63
2021/01/12 22:00:25;;;;;;;17.90;11.02;;;;;;;;;;4315944;33;19990;-63
2021/01/12 22:02:50;;;;;;;;;;;;;;;;;;4316615;33;20083;-65
2021/01/12 22:05:16;;;;;;;20.92;12.80;;;;;;;;;;4317067;33;19974;-63
2021/01/12 22:07:45;;;;;;;;;;;;;;;;;;4316272;33;20102;-63
2021/01/12 22:10:11;;;;;;;22.10;13.93;;;;;;;;;;4315619;33;19987;-63
2021/01/12 22:12:37;;;;;;;19.33;11.10;;;;;;;;;;4316679;33;20091;-63
2021/01/12 22:15:03;;;;;;;;;;;;;;;;;;4319115;33;20087;-63
2021/01/12 22:17:29;;;;;;;18.17;10.85;;;;;;;;;;4331362;33;19979;-62
2021/01/12 22:19:55;;;;;;;;;;;;;;;;;;4318862;33;20114;-63
2021/01/12 22:22:20;;;;;;;20.90;12.20;;;;;;;;;;4330549;33;20009;-63
2021/01/12 22:24:46;;;;;;;;;;;;;;;;;;4318905;33;20086;-63
2021/01/12 22:27:12;;;;;;;19.40;11.07;;;;;;;;;;4330544;33;19975;-62
2021/01/12 22:29:38;;;;;;;17.15;10.75;;;;;;;;;;4318267;33;20072;-63
2021/01/12 22:32:04;;;;;;;;;;;;;;;;;;4320161;33;20162;-63
2021/01/12 22:34:29;;;;;;;15.57;9.63;;;;;;;;;;4330791;33;19990;-62
2021/01/12 22:36:55;;;;;;;;;;;;;;;;;;4318902;33;20087;-63
2021/01/12 22:39:20;;;;;;;19.52;11.18;;;;;;;;;;4318506;33;19970;-63
2021/01/12 22:41:46;;;;;;;;;;;;;;;;;;4306463;33;20103;-63
2021/01/12 22:44:12;;;;;;;17.33;11.27;;;;;;;;;;4330664;33;19979;-63
2021/01/12 22:46:37;;;;;;;;;;;;;;;;;;4318634;33;20079;-62
2021/01/12 22:49:03;;;;;;;21.40;13.02;;;;;;;;;;4318074;33;19975;-62
2021/01/12 22:51:33;;;;;;;;;;;;;;;;;;4306096;33;20090;-64
2021/01/12 22:53:58;;;;;;;19.80;12.25;;;;;;;;;;4317917;33;19974;-62
2021/01/12 22:56:24;;;;;;;;;;;;;;;;;;4306558;33;20079;-64
2021/01/12 22:58:50;;;;;;;25.50;14.77;;;;;;;;;;4330083;33;20001;-62
2021/01/12 23:01:16;;;;;;;;;;;;;;;;;;4306366;33;20467;-63
2021/01/12 23:03:41;;;;;;;23.35;15.93;;;;;;;;;;4318173;33;20117;-63
2021/01/12 23:06:07;;;;;;;;;;;;;;;;;;4317824;33;20093;-63
2021/01/12 23:08:33;;;;;;;24.50;15.10;;;;;;;;;;4330220;33;19987;-63
2021/01/12 23:10:58;;;;;;;;;;;;;;;;;;4306081;33;20087;-63
2021/01/12 23:13:24;;;;;;;21.25;13.05;;;;;;;;;;4305979;33;20377;-63
2021/01/12 23:15:50;;;;;;;;;;;;;;;;;;4305911;33;20470;-63
2021/01/12 23:18:15;;;;;;;20.83;12.77;;;;;;;;;;4329860;33;20050;-62
2021/01/12 23:20:41;;;;;;;;;;;;;;;;;;4317735;33;20075;-63
2021/01/12 23:23:07;;;;;;;23.55;13.05;;;;;;;;;;4329140;33;19959;-63
2021/01/12 23:25:32;;;;;;;;;;;;;;;;;;4317813;33;20079;-63
2021/01/12 23:27:58;;;;;;;21.70;12.93;;;;;;;;;;4319724;33;20053;-63
2021/01/12 23:30:24;;;;;;;;;;;;;;;;;;4305774;33;20465;-63
2021/01/12 23:32:50;;;;;;;18.70;12.63;;;;;;;;;;4318080;33;19971;-62
2021/01/12 23:35:20;;;;;;;;;;;;;;;;;;4317574;33;20115;-63
2021/01/12 23:37:45;;;;;;;21.80;11.95;;;;;;;;;;4292941;33;19987;-63
2021/01/12 23:40:11;;;;;;;;;;;;;;;;;;4317579;33;20451;-63
2021/01/12 23:42:38;;;;;;;20.52;12.32;;;;;;;;;;4318785;33;19967;-63
2021/01/12 23:45:08;;;;;;;21.87;12.68;;;;;;;;;;4329867;33;20096;-63
2021/01/12 23:50:08;;;;;;;23.70;14.20;;;;;;;;;;3831929;37;20062;-62
2021/01/12 23:52:34;;;;;;;22.95;13.20;;;;;;;;;;4390949;32;20077;-64
2021/01/12 23:54:59;;;;;;;;;;;;;;;;;;4391009;32;20093;-63
2021/01/12 23:57:29;;;;;;;28.48;17.40;;;;;;;;;;4401826;32;20058;-63
2021/01/12 23:59:55;;;;;;;30.77;23.60;;;;;;;;;;4363273;32;20062;-63
